首页
METAR-TAF:

METAR-TAF

机场 :

真纳国际机场

卡拉奇, 巴基斯坦

纬度: 24-54N, 经度: 067-08E, 海拔: 21米

当前天气观测

该预报发布于43分钟前的13:55 UTC
风速6节,风向西南
温度 28°C
湿度 66%
气压 1012 hPa
能見度: 6000

METAR: OPKC 231355Z 22006KT 6000 NSC 28/21 Q1012 NOSIG

时间: 19:38 (14:38 UTC)

预报

该预报发布于11小时和8分钟前的03:30 UTC
预报有效从23日的 06点(UTC)到 23日的 15点(UTC)
风速8节,风向西转西南,有时为18节阵风
能見度: 6000

TAF: OPKC 230330Z 2306/2315 25008G18KT 6000 NSC

超过4000个机场的气象观测和天气预报(METAR&TAF报告)。

可查询的气象台以黄色和红色小点在地图上表示。

将鼠标移到小点上方,可查看气象台名称。

然后点击查看天气观测和预报。

如需切换地图:点击带黑十字的绿色按钮放大地图;点击带横线的绿色按钮缩小地图;或者点击绿色箭头查看邻近地区的地图。


METAR-TAF: